Terminal Aerodrome Forecast (TAF)

TAF


TAF for:NVSC (Vanua Lava/Sola Airport) issued at 1600 UTC 16 Aug 2018
Text:TAF NVSC 161600Z 1618/1718 12008KT 9999 BKN020
Forecast period:1800 UTC 16 August 2018 to 1800 UTC 17 August 2018
Forecast type:FROM: standard forecast or significant change
Winds:from the ESE (120 degrees) at 9 MPH (8 knots; 4.1 m/s)
Visibility:6 or more sm (10+ km)
Ceiling:2000 feet AGL
Clouds: broken clouds at 2000 feet AGL

TAF


TAF for:NVSG (Ambae/Longana Airport) issued at 1600 UTC 16 Aug 2018
Text:TAF NVSG 161600Z 1618/1718 VRB03KT 9999 SCT020
Forecast period:1800 UTC 16 August 2018 to 1800 UTC 17 August 2018
Forecast type:FROM: standard forecast or significant change
Winds:variable direction winds at 3 MPH (3 knots; 1.5 m/s)
Visibility:6 or more sm (10+ km)
Ceiling:at least 12,000 feet AGL
Clouds: scattered clouds at 2000 feet AGL

TAF


TAF for:NVSS (Santo/Pekoa International Airport) issued at 1600 UTC 16 Aug 2018
Text:TAF NVSS 161600Z 1618/1718 12009KT 9999 SCT020 BKN040
Forecast period:1800 UTC 16 August 2018 to 1800 UTC 17 August 2018
Forecast type:FROM: standard forecast or significant change
Winds:from the ESE (120 degrees) at 10 MPH (9 knots; 4.6 m/s)
Visibility:6 or more sm (10+ km)
Ceiling:4000 feet AGL
Clouds: scattered clouds at 2000 feet AGL, broken clouds at 4000 feet AGL

TAF


TAF for:NVSL (Malekula/Lamap Airport) issued at 1600 UTC 16 Aug 2018
Text:TAF NVSL 161600Z 1618/1718 12012KT 9999 SCT020 BKN040 INTER 1618/1624 9000 -SHRA BKN018
Forecast period:1800 UTC 16 August 2018 to 1800 UTC 17 August 2018
Forecast type:FROM: standard forecast or significant change
Winds:from the ESE (120 degrees) at 14 MPH (12 knots; 6.2 m/s)
Visibility:6 or more sm (10+ km)
Ceiling:4000 feet AGL
Clouds: scattered clouds at 2000 feet AGL, broken clouds at 4000 feet AGL
Text:
Forecast period:1800 UTC 16 August 2018 to 0000 UTC 17 August 2018
Forecast type:TEMPORARY: The following changes expected for less than half the time period
Visibility: 6 sm ( 9 km)
Ceiling:1800 feet AGL
Clouds: broken clouds at 1800 feet AGL
Weather:-SHRA (light rain showers)

TAF


TAF for:NVSP (Malekula/Norsup Airport) (Norsup Arpt, --, NV) issued at 1600 UTC 16 Aug 2018
Text:TAF NVSP (Malekula/Norsup Airport) 161600Z 1618/1718 13007KT 9999 SCT020 BKN040 INTER 1618/1624 9000 -SHRA BKN018
Forecast period:1800 UTC 16 August 2018 to 1800 UTC 17 August 2018
Forecast type:FROM: standard forecast or significant change
Winds:from the SE (130 degrees) at 8 MPH (7 knots; 3.6 m/s)
Visibility:6 or more sm (10+ km)
Ceiling:4000 feet AGL
Clouds: scattered clouds at 2000 feet AGL, broken clouds at 4000 feet AGL
Text:
Forecast period:1800 UTC 16 August 2018 to 0000 UTC 17 August 2018
Forecast type:TEMPORARY: The following changes expected for less than half the time period
Visibility: 6 sm ( 9 km)
Ceiling:1800 feet AGL
Clouds: broken clouds at 1800 feet AGL
Weather:-SHRA (light rain showers)

TAF


TAF for:NVVV (Efate/Bauerfield International Airport) issued at 1600 UTC 16 Aug 2018
Text:TAF NVVV 161600Z 1618/1718 11012KT 9999 SCT020 BKN040 INTER 1618/1624 9000 -SHRA BKN018
Forecast period:1800 UTC 16 August 2018 to 1800 UTC 17 August 2018
Forecast type:FROM: standard forecast or significant change
Winds:from the ESE (110 degrees) at 14 MPH (12 knots; 6.2 m/s)
Visibility:6 or more sm (10+ km)
Ceiling:4000 feet AGL
Clouds: scattered clouds at 2000 feet AGL, broken clouds at 4000 feet AGL
Text:
Forecast period:1800 UTC 16 August 2018 to 0000 UTC 17 August 2018
Forecast type:TEMPORARY: The following changes expected for less than half the time period
Visibility: 6 sm ( 9 km)
Ceiling:1800 feet AGL
Clouds: broken clouds at 1800 feet AGL
Weather:-SHRA (light rain showers)

TAF


TAF for:NVVW (Tanna/WhiteGrass International Airport) issued at 1600 UTC 16 Aug 2018
Text:TAF NVVW 161600Z 1618/1718 16006KT 9999 SCT020
Forecast period:1800 UTC 16 August 2018 to 1800 UTC 17 August 2018
Forecast type:FROM: standard forecast or significant change
Winds:from the SSE (160 degrees) at 7 MPH (6 knots; 3.1 m/s)
Visibility:6 or more sm (10+ km)
Ceiling:at least 12,000 feet AGL
Clouds: scattered clouds at 2000 feet AGL

TAF


TAF for:NVVA (Aneityum/Anelcahuat Airport) issued at 1600 UTC 16 Aug 2018
Text:TAF NVVA 161600Z 1618/1718 VRB03KT 9999 SCT020 BKN040
Forecast period:1800 UTC 16 August 2018 to 1800 UTC 17 August 2018
Forecast type:FROM: standard forecast or significant change
Winds:variable direction winds at 3 MPH (3 knots; 1.5 m/s)
Visibility:6 or more sm (10+ km)
Ceiling:4000 feet AGL
Clouds: scattered clouds at 2000 feet AGL, broken clouds at 4000 feet AGL

TAF

ADDS TAF Data INFO
IDs: Format: Raw Decoded Include METARs

Data at: 1805 UTC 16 Aug 2018

TAF NVSC 161600Z 1618/1718 12008KT 9999 BKN020
 TAF NVSG 161600Z 1618/1718 VRB03KT 9999 SCT020
 TAF NVSS 161600Z 1618/1718 12009KT 9999 SCT020 BKN040
 TAF NVSL 161600Z 1618/1718 12012KT 9999 SCT020 BKN040 INTER 1618/1624 9000 -SHRA BKN018
 TAF NVSP 161600Z 1618/1718 13007KT 9999 SCT020 BKN040 INTER 1618/1624 9000 -SHRA BKN018
 TAF NVVV 161600Z 1618/1718 11012KT 9999 SCT020 BKN040 INTER 1618/1624 9000 -SHRA BKN018
 TAF NVVW 161600Z 1618/1718 16006KT 9999 SCT020
 TAF NVVA 161600Z 1618/1718 VRB03KT 9999 SCT020 BKN040